sensor_id;sensor_type;location;lat;lon;timestamp;P1;durP1;ratioP1;P2;durP2;ratioP2
5022;SDS011;2530;47.990;7.866;2023-02-14T00:00:41;12.07;;;10.53;;
5022;SDS011;2530;47.990;7.866;2023-02-14T00:03:07;14.00;;;10.60;;
5022;SDS011;2530;47.990;7.866;2023-02-14T00:05:32;13.20;;;10.30;;
5022;SDS011;2530;47.990;7.866;2023-02-14T00:07:58;12.10;;;10.00;;
5022;SDS011;2530;47.990;7.866;2023-02-14T00:10:23;14.20;;;11.57;;
5022;SDS011;2530;47.990;7.866;2023-02-14T00:12:49;14.00;;;10.10;;
5022;SDS011;2530;47.990;7.866;2023-02-14T00:15:14;12.07;;;10.40;;
5022;SDS011;2530;47.990;7.866;2023-02-14T00:17:46;12.95;;;10.05;;
5022;SDS011;2530;47.990;7.866;2023-02-14T00:20:12;12.27;;;8.93;;
5022;SDS011;2530;47.990;7.866;2023-02-14T00:22:38;10.43;;;8.65;;
5022;SDS011;2530;47.990;7.866;2023-02-14T00:25:03;11.32;;;9.80;;
5022;SDS011;2530;47.990;7.866;2023-02-14T00:27:29;10.15;;;8.25;;
5022;SDS011;2530;47.990;7.866;2023-02-14T00:29:55;11.50;;;8.77;;
5022;SDS011;2530;47.990;7.866;2023-02-14T00:32:25;10.75;;;8.90;;
5022;SDS011;2530;47.990;7.866;2023-02-14T00:34:51;9.90;;;8.80;;
5022;SDS011;2530;47.990;7.866;2023-02-14T00:37:17;10.67;;;8.77;;
5022;SDS011;2530;47.990;7.866;2023-02-14T00:39:42;10.70;;;7.87;;
5022;SDS011;2530;47.990;7.866;2023-02-14T00:42:08;9.20;;;8.00;;
5022;SDS011;2530;47.990;7.866;2023-02-14T00:44:33;9.83;;;8.37;;
5022;SDS011;2530;47.990;7.866;2023-02-14T00:46:59;9.20;;;8.20;;
5022;SDS011;2530;47.990;7.866;2023-02-14T00:49:24;10.00;;;7.63;;
5022;SDS011;2530;47.990;7.866;2023-02-14T00:51:50;9.80;;;8.40;;
5022;SDS011;2530;47.990;7.866;2023-02-14T00:54:15;12.30;;;9.20;;
5022;SDS011;2530;47.990;7.866;2023-02-14T00:56:41;10.20;;;8.20;;
5022;SDS011;2530;47.990;7.866;2023-02-14T00:59:06;10.40;;;8.80;;
5022;SDS011;2530;47.990;7.866;2023-02-14T01:01:32;11.73;;;8.77;;
5022;SDS011;2530;47.990;7.866;2023-02-14T01:03:57;9.38;;;8.45;;
5022;SDS011;2530;47.990;7.866;2023-02-14T01:06:23;11.07;;;8.75;;
5022;SDS011;2530;47.990;7.866;2023-02-14T01:08:49;9.83;;;8.30;;
5022;SDS011;2530;47.990;7.866;2023-02-14T01:11:16;9.40;;;8.17;;
5022;SDS011;2530;47.990;7.866;2023-02-14T01:13:43;9.60;;;7.93;;
5022;SDS011;2530;47.990;7.866;2023-02-14T01:16:10;10.15;;;8.02;;
5022;SDS011;2530;47.990;7.866;2023-02-14T01:18:37;10.45;;;9.15;;
5022;SDS011;2530;47.990;7.866;2023-02-14T01:21:23;10.63;;;7.90;;
5022;SDS011;2530;47.990;7.866;2023-02-14T01:23:57;9.15;;;7.82;;
5022;SDS011;2530;47.990;7.866;2023-02-14T01:26:24;9.55;;;7.95;;
5022;SDS011;2530;47.990;7.866;2023-02-14T01:28:51;9.32;;;7.75;;
5022;SDS011;2530;47.990;7.866;2023-02-14T01:31:18;9.80;;;7.60;;
5022;SDS011;2530;47.990;7.866;2023-02-14T01:33:46;9.68;;;8.00;;
5022;SDS011;2530;47.990;7.866;2023-02-14T01:36:16;9.10;;;6.95;;
5022;SDS011;2530;47.990;7.866;2023-02-14T01:38:44;8.45;;;6.75;;
5022;SDS011;2530;47.990;7.866;2023-02-14T01:41:10;7.97;;;6.63;;
5022;SDS011;2530;47.990;7.866;2023-02-14T01:46:24;8.40;;;7.15;;
5022;SDS011;2530;47.990;7.866;2023-02-14T01:48:52;7.80;;;6.93;;
5022;SDS011;2530;47.990;7.866;2023-02-14T01:51:20;7.50;;;6.70;;
5022;SDS011;2530;47.990;7.866;2023-02-14T01:53:46;8.32;;;7.00;;
5022;SDS011;2530;47.990;7.866;2023-02-14T01:56:16;7.70;;;6.80;;
5022;SDS011;2530;47.990;7.866;2023-02-14T01:58:44;7.77;;;6.90;;
5022;SDS011;2530;47.990;7.866;2023-02-14T02:01:15;9.43;;;7.72;;
5022;SDS011;2530;47.990;7.866;2023-02-14T02:03:46;8.50;;;7.18;;
5022;SDS011;2530;47.990;7.866;2023-02-14T02:06:18;11.25;;;7.50;;
5022;SDS011;2530;47.990;7.866;2023-02-14T02:08:51;7.57;;;6.72;;
5022;SDS011;2530;47.990;7.866;2023-02-14T02:11:37;8.75;;;6.88;;
5022;SDS011;2530;47.990;7.866;2023-02-14T02:14:03;8.23;;;6.60;;
5022;SDS011;2530;47.990;7.866;2023-02-14T02:19:31;7.85;;;6.65;;
5022;SDS011;2530;47.990;7.866;2023-02-14T02:24:52;7.05;;;6.35;;
5022;SDS011;2530;47.990;7.866;2023-02-14T02:27:33;8.23;;;6.75;;
5022;SDS011;2530;47.990;7.866;2023-02-14T02:38:47;7.40;;;6.45;;
5022;SDS011;2530;47.990;7.866;2023-02-14T02:44:28;6.90;;;6.20;;
5022;SDS011;2530;47.990;7.866;2023-02-14T02:49:54;7.65;;;6.45;;
5022;SDS011;2530;47.990;7.866;2023-02-14T02:55:48;7.22;;;5.55;;
5022;SDS011;2530;47.990;7.866;2023-02-14T02:58:41;7.45;;;6.20;;
5022;SDS011;2530;47.990;7.866;2023-02-14T03:01:13;7.00;;;6.30;;
5022;SDS011;2530;47.990;7.866;2023-02-14T03:03:44;6.60;;;5.85;;
5022;SDS011;2530;47.990;7.866;2023-02-14T03:06:31;6.50;;;5.90;;
5022;SDS011;2530;47.990;7.866;2023-02-14T03:09:07;6.95;;;5.57;;
5022;SDS011;2530;47.990;7.866;2023-02-14T03:11:58;6.20;;;5.60;;
5022;SDS011;2530;47.990;7.866;2023-02-14T03:14:45;6.13;;;5.53;;
5022;SDS011;2530;47.990;7.866;2023-02-14T03:17:21;7.35;;;6.00;;
5022;SDS011;2530;47.990;7.866;2023-02-14T03:22:51;6.80;;;5.68;;
5022;SDS011;2530;47.990;7.866;2023-02-14T03:28:13;6.20;;;5.60;;
5022;SDS011;2530;47.990;7.866;2023-02-14T03:33:26;6.00;;;5.40;;
5022;SDS011;2530;47.990;7.866;2023-02-14T03:35:58;6.30;;;5.70;;
5022;SDS011;2530;47.990;7.866;2023-02-14T03:38:50;7.13;;;6.05;;
5022;SDS011;2530;47.990;7.866;2023-02-14T03:41:32;7.00;;;6.30;;
5022;SDS011;2530;47.990;7.866;2023-02-14T03:44:05;9.30;;;8.40;;
5022;SDS011;2530;47.990;7.866;2023-02-14T03:46:36;9.00;;;5.68;;
5022;SDS011;2530;47.990;7.866;2023-02-14T03:49:10;6.00;;;5.40;;
5022;SDS011;2530;47.990;7.866;2023-02-14T03:51:39;5.80;;;5.20;;
5022;SDS011;2530;47.990;7.866;2023-02-14T03:54:09;6.28;;;5.53;;
5022;SDS011;2530;47.990;7.866;2023-02-14T03:56:40;7.25;;;5.10;;
5022;SDS011;2530;47.990;7.866;2023-02-14T03:59:14;5.90;;;5.30;;
5022;SDS011;2530;47.990;7.866;2023-02-14T04:01:47;6.40;;;4.67;;
5022;SDS011;2530;47.990;7.866;2023-02-14T04:04:33;5.90;;;5.30;;
5022;SDS011;2530;47.990;7.866;2023-02-14T04:07:09;5.90;;;5.30;;
5022;SDS011;2530;47.990;7.866;2023-02-14T04:09:36;6.27;;;5.00;;
5022;SDS011;2530;47.990;7.866;2023-02-14T04:12:02;5.57;;;4.87;;
5022;SDS011;2530;47.990;7.866;2023-02-14T04:14:27;5.47;;;4.90;;
5022;SDS011;2530;47.990;7.866;2023-02-14T04:16:54;5.75;;;5.00;;
5022;SDS011;2530;47.990;7.866;2023-02-14T04:19:38;5.78;;;5.18;;
5022;SDS011;2530;47.990;7.866;2023-02-14T04:22:04;7.15;;;4.93;;
5022;SDS011;2530;47.990;7.866;2023-02-14T04:24:29;4.85;;;4.35;;
5022;SDS011;2530;47.990;7.866;2023-02-14T04:26:55;6.35;;;5.20;;
5022;SDS011;2530;47.990;7.866;2023-02-14T04:29:43;5.80;;;5.20;;
5022;SDS011;2530;47.990;7.866;2023-02-14T04:32:12;6.53;;;5.30;;
5022;SDS011;2530;47.990;7.866;2023-02-14T04:34:39;4.90;;;4.30;;
5022;SDS011;2530;47.990;7.866;2023-02-14T04:37:05;6.55;;;5.45;;
5022;SDS011;2530;47.990;7.866;2023-02-14T04:39:31;7.07;;;4.90;;
5022;SDS011;2530;47.990;7.866;2023-02-14T04:41:58;5.85;;;5.25;;
5022;SDS011;2530;47.990;7.866;2023-02-14T04:44:24;5.93;;;5.33;;
5022;SDS011;2530;47.990;7.866;2023-02-14T04:46:50;6.17;;;5.20;;
5022;SDS011;2530;47.990;7.866;2023-02-14T04:49:15;5.80;;;4.80;;
5022;SDS011;2530;47.990;7.866;2023-02-14T04:51:41;6.28;;;5.10;;
5022;SDS011;2530;47.990;7.866;2023-02-14T04:54:07;6.23;;;5.63;;
5022;SDS011;2530;47.990;7.866;2023-02-14T04:56:32;6.70;;;4.90;;
5022;SDS011;2530;47.990;7.866;2023-02-14T04:58:58;5.77;;;5.20;;
5022;SDS011;2530;47.990;7.866;2023-02-14T05:01:24;6.63;;;4.90;;
5022;SDS011;2530;47.990;7.866;2023-02-14T05:03:50;6.78;;;5.55;;
5022;SDS011;2530;47.990;7.866;2023-02-14T05:06:15;5.30;;;4.80;;
5022;SDS011;2530;47.990;7.866;2023-02-14T05:08:41;5.70;;;5.10;;
5022;SDS011;2530;47.990;7.866;2023-02-14T05:11:06;6.03;;;5.00;;
5022;SDS011;2530;47.990;7.866;2023-02-14T05:13:32;5.40;;;4.90;;
5022;SDS011;2530;47.990;7.866;2023-02-14T05:15:57;8.37;;;6.30;;
5022;SDS011;2530;47.990;7.866;2023-02-14T05:18:24;11.45;;;7.88;;
5022;SDS011;2530;47.990;7.866;2023-02-14T05:20:50;9.43;;;7.80;;
5022;SDS011;2530;47.990;7.866;2023-02-14T05:23:17;8.55;;;6.95;;
5022;SDS011;2530;47.990;7.866;2023-02-14T05:25:43;7.60;;;6.10;;
5022;SDS011;2530;47.990;7.866;2023-02-14T05:28:08;8.93;;;6.63;;
5022;SDS011;2530;47.990;7.866;2023-02-14T05:30:34;5.90;;;5.30;;
5022;SDS011;2530;47.990;7.866;2023-02-14T05:33:01;6.82;;;4.68;;
5022;SDS011;2530;47.990;7.866;2023-02-14T05:35:26;7.47;;;5.10;;
5022;SDS011;2530;47.990;7.866;2023-02-14T05:37:52;4.90;;;4.40;;
5022;SDS011;2530;47.990;7.866;2023-02-14T05:40:18;5.85;;;5.10;;
5022;SDS011;2530;47.990;7.866;2023-02-14T05:42:43;5.20;;;4.28;;
5022;SDS011;2530;47.990;7.866;2023-02-14T05:45:09;6.25;;;5.20;;
5022;SDS011;2530;47.990;7.866;2023-02-14T05:47:36;7.60;;;5.57;;
5022;SDS011;2530;47.990;7.866;2023-02-14T05:50:02;5.50;;;5.00;;
5022;SDS011;2530;47.990;7.866;2023-02-14T05:52:28;5.53;;;5.00;;
5022;SDS011;2530;47.990;7.866;2023-02-14T05:54:53;5.23;;;4.57;;
5022;SDS011;2530;47.990;7.866;2023-02-14T05:57:19;5.23;;;4.73;;
5022;SDS011;2530;47.990;7.866;2023-02-14T05:59:44;5.73;;;4.77;;
5022;SDS011;2530;47.990;7.866;2023-02-14T06:02:10;5.20;;;4.70;;
5022;SDS011;2530;47.990;7.866;2023-02-14T06:04:35;5.73;;;5.03;;
5022;SDS011;2530;47.990;7.866;2023-02-14T06:07:01;6.23;;;5.43;;
5022;SDS011;2530;47.990;7.866;2023-02-14T06:09:27;5.32;;;4.80;;
5022;SDS011;2530;47.990;7.866;2023-02-14T06:11:52;5.63;;;5.05;;
5022;SDS011;2530;47.990;7.866;2023-02-14T06:14:18;5.78;;;5.18;;
5022;SDS011;2530;47.990;7.866;2023-02-14T06:16:43;6.78;;;5.70;;
5022;SDS011;2530;47.990;7.866;2023-02-14T06:19:09;6.90;;;5.53;;
5022;SDS011;2530;47.990;7.866;2023-02-14T06:21:34;5.80;;;5.20;;
5022;SDS011;2530;47.990;7.866;2023-02-14T06:24:00;7.03;;;5.28;;
5022;SDS011;2530;47.990;7.866;2023-02-14T06:26:26;5.57;;;5.07;;
5022;SDS011;2530;47.990;7.866;2023-02-14T06:28:54;6.63;;;5.60;;
5022;SDS011;2530;47.990;7.866;2023-02-14T06:31:21;6.70;;;5.38;;
5022;SDS011;2530;47.990;7.866;2023-02-14T06:33:47;6.80;;;6.10;;
5022;SDS011;2530;47.990;7.866;2023-02-14T06:36:12;7.30;;;5.80;;
5022;SDS011;2530;47.990;7.866;2023-02-14T06:38:38;7.80;;;6.30;;
5022;SDS011;2530;47.990;7.866;2023-02-14T06:41:04;7.10;;;5.90;;
5022;SDS011;2530;47.990;7.866;2023-02-14T06:43:31;6.60;;;5.90;;
5022;SDS011;2530;47.990;7.866;2023-02-14T06:45:57;7.60;;;6.50;;
5022;SDS011;2530;47.990;7.866;2023-02-14T06:48:22;7.10;;;6.40;;
5022;SDS011;2530;47.990;7.866;2023-02-14T06:50:48;8.05;;;6.88;;
5022;SDS011;2530;47.990;7.866;2023-02-14T06:53:13;7.32;;;6.60;;
5022;SDS011;2530;47.990;7.866;2023-02-14T06:55:39;6.15;;;5.50;;
5022;SDS011;2530;47.990;7.866;2023-02-14T06:58:04;7.38;;;5.50;;
5022;SDS011;2530;47.990;7.866;2023-02-14T07:00:30;6.45;;;5.50;;
5022;SDS011;2530;47.990;7.866;2023-02-14T07:02:56;5.60;;;4.90;;
5022;SDS011;2530;47.990;7.866;2023-02-14T07:05:21;6.60;;;5.70;;
5022;SDS011;2530;47.990;7.866;2023-02-14T07:07:47;6.13;;;5.47;;
5022;SDS011;2530;47.990;7.866;2023-02-14T07:10:13;5.60;;;5.00;;
5022;SDS011;2530;47.990;7.866;2023-02-14T07:12:39;6.40;;;5.40;;
5022;SDS011;2530;47.990;7.866;2023-02-14T07:15:08;6.30;;;5.00;;
5022;SDS011;2530;47.990;7.866;2023-02-14T07:17:35;5.97;;;5.38;;
5022;SDS011;2530;47.990;7.866;2023-02-14T07:20:02;8.27;;;5.07;;
5022;SDS011;2530;47.990;7.866;2023-02-14T07:22:29;6.20;;;4.80;;
5022;SDS011;2530;47.990;7.866;2023-02-14T07:24:55;6.03;;;5.43;;
5022;SDS011;2530;47.990;7.866;2023-02-14T07:27:20;6.28;;;5.18;;
5022;SDS011;2530;47.990;7.866;2023-02-14T07:29:46;6.10;;;5.15;;
5022;SDS011;2530;47.990;7.866;2023-02-14T07:32:12;6.77;;;6.07;;
5022;SDS011;2530;47.990;7.866;2023-02-14T07:34:37;5.90;;;5.40;;
5022;SDS011;2530;47.990;7.866;2023-02-14T07:37:03;7.27;;;6.07;;
5022;SDS011;2530;47.990;7.866;2023-02-14T07:39:28;6.00;;;5.50;;
5022;SDS011;2530;47.990;7.866;2023-02-14T07:41:57;6.77;;;5.37;;
5022;SDS011;2530;47.990;7.866;2023-02-14T07:44:22;7.23;;;5.37;;
5022;SDS011;2530;47.990;7.866;2023-02-14T07:46:48;6.20;;;5.60;;
5022;SDS011;2530;47.990;7.866;2023-02-14T07:49:14;6.72;;;5.90;;
5022;SDS011;2530;47.990;7.866;2023-02-14T07:51:39;6.72;;;6.10;;
5022;SDS011;2530;47.990;7.866;2023-02-14T07:54:05;7.20;;;5.40;;
5022;SDS011;2530;47.990;7.866;2023-02-14T07:56:30;6.32;;;5.72;;
5022;SDS011;2530;47.990;7.866;2023-02-14T07:58:56;7.85;;;5.75;;
5022;SDS011;2530;47.990;7.866;2023-02-14T08:01:22;6.78;;;5.65;;
5022;SDS011;2530;47.990;7.866;2023-02-14T08:03:47;6.50;;;5.90;;
5022;SDS011;2530;47.990;7.866;2023-02-14T08:06:14;6.32;;;5.70;;
5022;SDS011;2530;47.990;7.866;2023-02-14T08:08:40;6.72;;;5.90;;
5022;SDS011;2530;47.990;7.866;2023-02-14T08:11:06;18.20;;;12.50;;
5022;SDS011;2530;47.990;7.866;2023-02-14T08:13:31;16.87;;;13.23;;
5022;SDS011;2530;47.990;7.866;2023-02-14T08:15:57;18.80;;;15.20;;
5022;SDS011;2530;47.990;7.866;2023-02-14T08:18:29;23.08;;;17.58;;
5022;SDS011;2530;47.990;7.866;2023-02-14T08:21:03;26.92;;;19.25;;
5022;SDS011;2530;47.990;7.866;2023-02-14T08:23:29;26.63;;;19.38;;
5022;SDS011;2530;47.990;7.866;2023-02-14T08:25:55;27.13;;;19.17;;
5022;SDS011;2530;47.990;7.866;2023-02-14T08:28:22;27.02;;;20.08;;
5022;SDS011;2530;47.990;7.866;2023-02-14T08:30:48;30.58;;;21.45;;
5022;SDS011;2530;47.990;7.866;2023-02-14T08:33:14;31.92;;;21.27;;
5022;SDS011;2530;47.990;7.866;2023-02-14T08:35:40;32.40;;;21.67;;
5022;SDS011;2530;47.990;7.866;2023-02-14T08:38:05;27.90;;;19.55;;
5022;SDS011;2530;47.990;7.866;2023-02-14T08:40:32;27.60;;;20.42;;
5022;SDS011;2530;47.990;7.866;2023-02-14T08:43:00;27.80;;;19.10;;
5022;SDS011;2530;47.990;7.866;2023-02-14T08:45:25;24.03;;;18.97;;
5022;SDS011;2530;47.990;7.866;2023-02-14T08:47:51;22.97;;;17.90;;
5022;SDS011;2530;47.990;7.866;2023-02-14T08:50:17;25.80;;;18.63;;
5022;SDS011;2530;47.990;7.866;2023-02-14T08:52:43;26.58;;;19.42;;
5022;SDS011;2530;47.990;7.866;2023-02-14T08:55:09;25.57;;;18.30;;
5022;SDS011;2530;47.990;7.866;2023-02-14T08:57:37;26.20;;;20.15;;
5022;SDS011;2530;47.990;7.866;2023-02-14T09:00:03;23.85;;;19.02;;
5022;SDS011;2530;47.990;7.866;2023-02-14T09:02:29;23.25;;;18.63;;
5022;SDS011;2530;47.990;7.866;2023-02-14T09:04:55;26.40;;;19.90;;
5022;SDS011;2530;47.990;7.866;2023-02-14T09:07:20;25.67;;;20.20;;
5022;SDS011;2530;47.990;7.866;2023-02-14T09:09:46;24.10;;;17.93;;
5022;SDS011;2530;47.990;7.866;2023-02-14T09:12:11;26.67;;;18.13;;
5022;SDS011;2530;47.990;7.866;2023-02-14T09:14:41;27.03;;;18.60;;
5022;SDS011;2530;47.990;7.866;2023-02-14T09:17:08;24.88;;;17.70;;
5022;SDS011;2530;47.990;7.866;2023-02-14T09:19:36;25.75;;;19.20;;
5022;SDS011;2530;47.990;7.866;2023-02-14T09:22:02;30.27;;;18.48;;
5022;SDS011;2530;47.990;7.866;2023-02-14T09:24:30;32.00;;;20.33;;
5022;SDS011;2530;47.990;7.866;2023-02-14T09:26:57;30.60;;;21.27;;
5022;SDS011;2530;47.990;7.866;2023-02-14T09:29:23;27.42;;;20.10;;
5022;SDS011;2530;47.990;7.866;2023-02-14T09:31:52;28.08;;;20.42;;
5022;SDS011;2530;47.990;7.866;2023-02-14T09:34:19;27.73;;;19.10;;
5022;SDS011;2530;47.990;7.866;2023-02-14T09:37:03;28.15;;;19.55;;
5022;SDS011;2530;47.990;7.866;2023-02-14T09:39:29;27.92;;;19.85;;
5022;SDS011;2530;47.990;7.866;2023-02-14T09:44:52;26.35;;;19.30;;
5022;SDS011;2530;47.990;7.866;2023-02-14T09:49:59;29.60;;;21.40;;
5022;SDS011;2530;47.990;7.866;2023-02-14T09:52:29;29.02;;;22.13;;
5022;SDS011;2530;47.990;7.866;2023-02-14T09:54:56;30.23;;;21.40;;
5022;SDS011;2530;47.990;7.866;2023-02-14T10:00:37;32.75;;;21.52;;
5022;SDS011;2530;47.990;7.866;2023-02-14T10:03:47;28.75;;;21.13;;
5022;SDS011;2530;47.990;7.866;2023-02-14T10:06:35;24.73;;;19.17;;
5022;SDS011;2530;47.990;7.866;2023-02-14T10:09:17;30.83;;;21.57;;
5022;SDS011;2530;47.990;7.866;2023-02-14T10:12:05;32.50;;;22.30;;
5022;SDS011;2530;47.990;7.866;2023-02-14T10:14:43;32.75;;;22.33;;
5022;SDS011;2530;47.990;7.866;2023-02-14T10:20:02;31.67;;;21.92;;
5022;SDS011;2530;47.990;7.866;2023-02-14T10:22:40;33.45;;;23.05;;
5022;SDS011;2530;47.990;7.866;2023-02-14T10:25:15;34.42;;;22.42;;
5022;SDS011;2530;47.990;7.866;2023-02-14T10:27:45;33.05;;;22.70;;
5022;SDS011;2530;47.990;7.866;2023-02-14T10:30:13;32.08;;;23.08;;
5022;SDS011;2530;47.990;7.866;2023-02-14T10:32:45;31.50;;;23.23;;
5022;SDS011;2530;47.990;7.866;2023-02-14T10:37:55;31.45;;;23.00;;
5022;SDS011;2530;47.990;7.866;2023-02-14T10:47:03;33.80;;;24.25;;
5022;SDS011;2530;47.990;7.866;2023-02-14T10:55:19;36.40;;;25.38;;
5022;SDS011;2530;47.990;7.866;2023-02-14T10:58:05;34.70;;;24.00;;
5022;SDS011;2530;47.990;7.866;2023-02-14T11:00:34;33.17;;;24.20;;
5022;SDS011;2530;47.990;7.866;2023-02-14T11:03:04;33.72;;;23.73;;
5022;SDS011;2530;47.990;7.866;2023-02-14T11:05:40;32.05;;;24.23;;
5022;SDS011;2530;47.990;7.866;2023-02-14T11:08:27;32.05;;;23.02;;
5022;SDS011;2530;47.990;7.866;2023-02-14T11:13:42;30.60;;;23.20;;
5022;SDS011;2530;47.990;7.866;2023-02-14T11:16:09;34.25;;;23.13;;
5022;SDS011;2530;47.990;7.866;2023-02-14T11:18:37;34.15;;;24.85;;
5022;SDS011;2530;47.990;7.866;2023-02-14T11:23:44;31.33;;;23.60;;
5022;SDS011;2530;47.990;7.866;2023-02-14T11:26:16;31.00;;;21.88;;
5022;SDS011;2530;47.990;7.866;2023-02-14T11:28:57;33.28;;;22.60;;
5022;SDS011;2530;47.990;7.866;2023-02-14T11:31:34;33.72;;;24.40;;
5022;SDS011;2530;47.990;7.866;2023-02-14T11:34:02;27.63;;;21.70;;
5022;SDS011;2530;47.990;7.866;2023-02-14T11:36:31;33.00;;;20.35;;
5022;SDS011;2530;47.990;7.866;2023-02-14T11:39:05;27.58;;;20.70;;
5022;SDS011;2530;47.990;7.866;2023-02-14T11:41:48;27.67;;;21.13;;
5022;SDS011;2530;47.990;7.866;2023-02-14T11:44:17;27.38;;;21.75;;
5022;SDS011;2530;47.990;7.866;2023-02-14T11:46:48;26.20;;;21.55;;
5022;SDS011;2530;47.990;7.866;2023-02-14T11:49:26;25.73;;;20.52;;
5022;SDS011;2530;47.990;7.866;2023-02-14T11:51:54;28.23;;;20.60;;
5022;SDS011;2530;47.990;7.866;2023-02-14T11:54:35;27.45;;;20.73;;
5022;SDS011;2530;47.990;7.866;2023-02-14T11:59:37;25.70;;;21.08;;
5022;SDS011;2530;47.990;7.866;2023-02-14T12:04:48;22.52;;;18.88;;
5022;SDS011;2530;47.990;7.866;2023-02-14T12:07:21;23.30;;;18.23;;
5022;SDS011;2530;47.990;7.866;2023-02-14T12:15:23;23.55;;;19.02;;
5022;SDS011;2530;47.990;7.866;2023-02-14T12:20:48;24.88;;;18.60;;
5022;SDS011;2530;47.990;7.866;2023-02-14T12:23:19;24.23;;;18.65;;
5022;SDS011;2530;47.990;7.866;2023-02-14T12:26:09;24.92;;;18.90;;
5022;SDS011;2530;47.990;7.866;2023-02-14T12:29:44;24.20;;;18.50;;
5022;SDS011;2530;47.990;7.866;2023-02-14T12:31:45;23.00;;;19.02;;
5022;SDS011;2530;47.990;7.866;2023-02-14T12:34:12;23.27;;;18.45;;
5022;SDS011;2530;47.990;7.866;2023-02-14T12:48:17;23.80;;;19.02;;
5022;SDS011;2530;47.990;7.866;2023-02-14T12:56:24;23.85;;;18.75;;
5022;SDS011;2530;47.990;7.866;2023-02-14T12:59:05;21.98;;;18.85;;
5022;SDS011;2530;47.990;7.866;2023-02-14T13:01:46;25.15;;;19.33;;
5022;SDS011;2530;47.990;7.866;2023-02-14T13:22:59;22.67;;;19.08;;
5022;SDS011;2530;47.990;7.866;2023-02-14T13:25:29;25.33;;;20.20;;
5022;SDS011;2530;47.990;7.866;2023-02-14T13:28:00;24.80;;;20.02;;
5022;SDS011;2530;47.990;7.866;2023-02-14T13:30:30;25.02;;;20.27;;
5022;SDS011;2530;47.990;7.866;2023-02-14T13:33:02;23.50;;;19.40;;
5022;SDS011;2530;47.990;7.866;2023-02-14T13:35:47;23.45;;;19.15;;
5022;SDS011;2530;47.990;7.866;2023-02-14T13:38:14;23.42;;;18.98;;
5022;SDS011;2530;47.990;7.866;2023-02-14T13:40:42;25.80;;;20.88;;
5022;SDS011;2530;47.990;7.866;2023-02-14T13:43:09;23.13;;;19.15;;
5022;SDS011;2530;47.990;7.866;2023-02-14T13:48:05;25.25;;;19.83;;
5022;SDS011;2530;47.990;7.866;2023-02-14T13:50:38;21.98;;;19.02;;
5022;SDS011;2530;47.990;7.866;2023-02-14T13:53:04;22.17;;;19.77;;
5022;SDS011;2530;47.990;7.866;2023-02-14T13:55:35;22.92;;;18.48;;
5022;SDS011;2530;47.990;7.866;2023-02-14T13:58:13;21.40;;;18.30;;
5022;SDS011;2530;47.990;7.866;2023-02-14T14:00:43;23.35;;;19.50;;
5022;SDS011;2530;47.990;7.866;2023-02-14T14:03:57;20.50;;;17.42;;
5022;SDS011;2530;47.990;7.866;2023-02-14T14:06:01;20.52;;;18.33;;
5022;SDS011;2530;47.990;7.866;2023-02-14T14:11:00;21.60;;;18.52;;
5022;SDS011;2530;47.990;7.866;2023-02-14T14:18:56;19.73;;;17.63;;
5022;SDS011;2530;47.990;7.866;2023-02-14T14:27:00;20.33;;;18.13;;
5022;SDS011;2530;47.990;7.866;2023-02-14T14:29:46;21.20;;;18.13;;
5022;SDS011;2530;47.990;7.866;2023-02-14T14:32:33;22.75;;;17.85;;
5022;SDS011;2530;47.990;7.866;2023-02-14T14:35:16;22.15;;;17.88;;
5022;SDS011;2530;47.990;7.866;2023-02-14T14:40:29;20.33;;;18.05;;
5022;SDS011;2530;47.990;7.866;2023-02-14T14:43:06;24.30;;;19.97;;
5022;SDS011;2530;47.990;7.866;2023-02-14T14:45:37;20.85;;;17.88;;
5022;SDS011;2530;47.990;7.866;2023-02-14T14:48:12;24.70;;;19.38;;
5022;SDS011;2530;47.990;7.866;2023-02-14T14:50:45;23.38;;;18.17;;
5022;SDS011;2530;47.990;7.866;2023-02-14T14:53:26;22.23;;;18.23;;
5022;SDS011;2530;47.990;7.866;2023-02-14T14:55:55;21.83;;;19.02;;
5022;SDS011;2530;47.990;7.866;2023-02-14T15:01:04;24.38;;;20.08;;
5022;SDS011;2530;47.990;7.866;2023-02-14T15:03:31;23.70;;;19.63;;
5022;SDS011;2530;47.990;7.866;2023-02-14T15:06:02;23.67;;;18.83;;
5022;SDS011;2530;47.990;7.866;2023-02-14T15:08:39;23.67;;;20.05;;
5022;SDS011;2530;47.990;7.866;2023-02-14T15:11:06;26.15;;;21.38;;
5022;SDS011;2530;47.990;7.866;2023-02-14T15:13:58;24.27;;;19.83;;
5022;SDS011;2530;47.990;7.866;2023-02-14T15:17:00;24.42;;;20.27;;
5022;SDS011;2530;47.990;7.866;2023-02-14T15:22:03;29.40;;;21.10;;
5022;SDS011;2530;47.990;7.866;2023-02-14T15:24:42;23.60;;;20.48;;
5022;SDS011;2530;47.990;7.866;2023-02-14T15:27:15;26.55;;;20.75;;
5022;SDS011;2530;47.990;7.866;2023-02-14T15:29:54;29.58;;;22.15;;
5022;SDS011;2530;47.990;7.866;2023-02-14T15:32:22;28.15;;;21.55;;
5022;SDS011;2530;47.990;7.866;2023-02-14T15:34:54;28.30;;;22.53;;
5022;SDS011;2530;47.990;7.866;2023-02-14T15:37:20;29.00;;;22.67;;
5022;SDS011;2530;47.990;7.866;2023-02-14T15:39:48;29.17;;;22.55;;
5022;SDS011;2530;47.990;7.866;2023-02-14T15:42:21;25.88;;;20.33;;
5022;SDS011;2530;47.990;7.866;2023-02-14T15:45:16;24.05;;;18.50;;
5022;SDS011;2530;47.990;7.866;2023-02-14T15:47:49;22.90;;;19.63;;
5022;SDS011;2530;47.990;7.866;2023-02-14T15:52:44;25.20;;;19.33;;
5022;SDS011;2530;47.990;7.866;2023-02-14T15:55:11;27.52;;;20.30;;
5022;SDS011;2530;47.990;7.866;2023-02-14T15:57:42;26.77;;;21.75;;
5022;SDS011;2530;47.990;7.866;2023-02-14T16:00:16;27.63;;;21.23;;
5022;SDS011;2530;47.990;7.866;2023-02-14T16:02:44;27.67;;;21.95;;
5022;SDS011;2530;47.990;7.866;2023-02-14T16:05:16;32.95;;;22.73;;
5022;SDS011;2530;47.990;7.866;2023-02-14T16:07:54;33.58;;;23.80;;
5022;SDS011;2530;47.990;7.866;2023-02-14T16:10:28;32.72;;;24.70;;
5022;SDS011;2530;47.990;7.866;2023-02-14T16:15:24;30.80;;;23.60;;
5022;SDS011;2530;47.990;7.866;2023-02-14T16:17:52;30.10;;;23.03;;
5022;SDS011;2530;47.990;7.866;2023-02-14T16:20:22;29.93;;;23.57;;
5022;SDS011;2530;47.990;7.866;2023-02-14T16:25:48;32.73;;;24.97;;
5022;SDS011;2530;47.990;7.866;2023-02-14T16:28:13;32.58;;;25.40;;
5022;SDS011;2530;47.990;7.866;2023-02-14T16:30:39;34.80;;;24.38;;
5022;SDS011;2530;47.990;7.866;2023-02-14T16:33:10;31.77;;;25.17;;
5022;SDS011;2530;47.990;7.866;2023-02-14T16:35:49;36.70;;;25.30;;
5022;SDS011;2530;47.990;7.866;2023-02-14T16:38:15;37.10;;;26.00;;
5022;SDS011;2530;47.990;7.866;2023-02-14T16:40:47;33.72;;;26.20;;
5022;SDS011;2530;47.990;7.866;2023-02-14T16:43:15;35.65;;;26.20;;
5022;SDS011;2530;47.990;7.866;2023-02-14T16:45:43;34.00;;;25.70;;
5022;SDS011;2530;47.990;7.866;2023-02-14T16:48:09;37.92;;;25.80;;
5022;SDS011;2530;47.990;7.866;2023-02-14T16:50:35;35.90;;;26.85;;
5022;SDS011;2530;47.990;7.866;2023-02-14T16:53:03;31.05;;;24.67;;
5022;SDS011;2530;47.990;7.866;2023-02-14T16:55:32;38.10;;;27.03;;
5022;SDS011;2530;47.990;7.866;2023-02-14T16:57:58;36.05;;;26.30;;
5022;SDS011;2530;47.990;7.866;2023-02-14T17:00:26;33.80;;;25.50;;
5022;SDS011;2530;47.990;7.866;2023-02-14T17:02:52;35.20;;;25.40;;
5022;SDS011;2530;47.990;7.866;2023-02-14T17:05:28;36.78;;;25.95;;
5022;SDS011;2530;47.990;7.866;2023-02-14T17:07:56;38.53;;;28.50;;
5022;SDS011;2530;47.990;7.866;2023-02-14T17:10:21;34.28;;;24.85;;
5022;SDS011;2530;47.990;7.866;2023-02-14T17:12:47;33.78;;;24.52;;
5022;SDS011;2530;47.990;7.866;2023-02-14T17:15:17;35.65;;;25.73;;
5022;SDS011;2530;47.990;7.866;2023-02-14T17:17:46;35.70;;;26.55;;
5022;SDS011;2530;47.990;7.866;2023-02-14T17:20:13;34.03;;;26.10;;
5022;SDS011;2530;47.990;7.866;2023-02-14T17:22:39;36.70;;;27.00;;
5022;SDS011;2530;47.990;7.866;2023-02-14T17:25:08;34.28;;;25.27;;
5022;SDS011;2530;47.990;7.866;2023-02-14T17:27:34;39.15;;;28.67;;
5022;SDS011;2530;47.990;7.866;2023-02-14T17:29:59;41.25;;;29.60;;
5022;SDS011;2530;47.990;7.866;2023-02-14T17:32:25;40.15;;;28.60;;
5022;SDS011;2530;47.990;7.866;2023-02-14T17:34:51;38.75;;;28.23;;
5022;SDS011;2530;47.990;7.866;2023-02-14T17:37:16;39.60;;;28.90;;
5022;SDS011;2530;47.990;7.866;2023-02-14T17:39:44;40.92;;;29.25;;
5022;SDS011;2530;47.990;7.866;2023-02-14T17:42:10;48.95;;;30.00;;
5022;SDS011;2530;47.990;7.866;2023-02-14T17:44:35;45.42;;;29.85;;